Time;durP1;ratioP1;P1;durP2;ratioP2;P2;SDS_P1;SDS_P2;PMS_P1;PMS_P2;Temp;Humidity;BMP_temperature;BMP_pressure;BME280_temperature;BME280_humidity;BME280_pressure;Samples;Min_cycle;Max_cycle;Signal;HPM_P1;HPM_P2
2022/01/03 00:00:39;;;;;;;10.77;3.20;;;12.50;99.90;;;;;;2081486;28;20026;-71
2022/01/03 00:01:46;;;;;;;7.35;2.63;;;12.50;99.90;;;;;;2081604;28;20049;-71
2022/01/03 00:02:47;;;;;;;9.02;3.00;;;12.50;99.90;;;;;;2078563;28;20033;-71
2022/01/03 00:03:47;;;;;;;11.00;3.30;;;12.50;99.90;;;;;;2080905;28;20104;-71
2022/01/03 00:04:49;;;;;;;10.30;2.85;;;12.50;99.90;;;;;;2071421;28;20433;-71
2022/01/03 00:05:49;;;;;;;12.32;3.63;;;12.50;99.90;;;;;;2079438;28;20104;-72
2022/01/03 00:06:50;;;;;;;9.65;2.92;;;12.50;99.90;;;;;;2079875;28;20032;-71
2022/01/03 00:07:51;;;;;;;10.98;2.80;;;12.50;99.90;;;;;;2080548;28;20091;-71
2022/01/03 00:08:51;;;;;;;10.18;2.90;;;12.50;99.90;;;;;;2080216;28;20100;-71
2022/01/03 00:09:53;;;;;;;11.02;3.10;;;12.40;99.90;;;;;;2079979;28;20108;-71
2022/01/03 00:10:54;;;;;;;7.88;3.08;;;12.50;99.90;;;;;;2079491;28;20017;-72
2022/01/03 00:11:55;;;;;;;9.32;3.35;;;12.40;99.90;;;;;;2079763;28;20029;-71
2022/01/03 00:12:56;;;;;;;11.68;2.88;;;12.40;99.90;;;;;;2087479;28;20362;-71
2022/01/03 00:13:57;;;;;;;8.30;2.72;;;12.40;99.90;;;;;;2079420;28;20191;-71
2022/01/03 00:14:58;;;;;;;10.52;3.15;;;12.40;99.90;;;;;;2079065;28;20021;-71
2022/01/03 00:15:59;;;;;;;10.85;3.10;;;12.40;99.90;;;;;;2084592;28;20029;-71
2022/01/03 00:16:59;;;;;;;11.82;2.83;;;12.40;99.90;;;;;;2088178;28;20064;-71
2022/01/03 00:18:00;;;;;;;9.68;3.00;;;12.50;99.90;;;;;;2088425;28;20032;-71
2022/01/03 00:19:01;;;;;;;11.52;3.65;;;12.50;99.90;;;;;;2088071;28;20033;-71
2022/01/03 00:20:01;;;;;;;10.43;2.80;;;12.40;99.90;;;;;;2088372;28;20037;-71
2022/01/03 00:21:05;;;;;;;11.77;3.13;;;12.40;99.90;;;;;;2088321;28;20032;-71
2022/01/03 00:22:09;;;;;;;14.32;3.25;;;12.50;99.90;;;;;;2088132;28;20033;-71
2022/01/03 00:23:13;;;;;;;8.02;3.03;;;12.40;99.90;;;;;;2087436;28;20024;-71
2022/01/03 00:24:20;;;;;;;12.32;2.97;;;12.50;99.90;;;;;;2085361;28;20086;-71
2022/01/03 00:25:22;;;;;;;11.15;3.05;;;12.50;99.90;;;;;;2079872;28;20018;-71
2022/01/03 00:26:25;;;;;;;12.35;3.47;;;12.50;99.90;;;;;;2080072;28;20018;-71
2022/01/03 00:27:40;;;;;;;9.25;3.30;;;12.40;99.90;;;;;;2079914;28;20470;-71
2022/01/03 00:28:50;;;;;;;13.23;3.00;;;12.40;99.90;;;;;;2080182;28;20025;-71
2022/01/03 00:29:51;;;;;;;12.43;3.30;;;12.40;99.90;;;;;;2080219;28;20028;-71
2022/01/03 00:30:56;;;;;;;8.75;2.67;;;12.40;99.90;;;;;;2079272;28;20977;-71
2022/01/03 00:31:57;;;;;;;12.80;3.10;;;12.40;99.90;;;;;;2079289;28;20386;-71
2022/01/03 00:32:58;;;;;;;15.23;3.20;;;12.40;99.90;;;;;;2080250;28;20013;-71
2022/01/03 00:34:01;;;;;;;11.52;3.50;;;12.40;99.90;;;;;;2080031;28;20022;-71
2022/01/03 00:35:03;;;;;;;7.18;2.42;;;12.40;99.90;;;;;;2079758;28;20029;-71
2022/01/03 00:36:04;;;;;;;10.40;2.70;;;12.40;99.90;;;;;;2079788;28;20028;-71
2022/01/03 00:37:07;;;;;;;14.93;3.63;;;12.40;99.90;;;;;;2080063;28;20021;-71
2022/01/03 00:38:11;;;;;;;7.32;2.60;;;12.40;99.90;;;;;;2079326;28;20121;-71
2022/01/03 00:39:12;;;;;;;8.23;3.28;;;12.40;99.90;;;;;;2083216;28;20026;-71
2022/01/03 00:40:15;;;;;;;9.35;3.00;;;12.40;99.90;;;;;;2083748;28;20025;-71
2022/01/03 00:41:16;;;;;;;10.38;3.40;;;12.40;99.90;;;;;;2088651;28;20020;-71
2022/01/03 00:42:16;;;;;;;11.65;3.35;;;12.40;99.90;;;;;;2087526;28;20024;-71
2022/01/03 00:43:17;;;;;;;10.68;3.28;;;12.40;99.90;;;;;;2081600;28;20091;-71
2022/01/03 00:44:22;;;;;;;9.80;3.20;;;12.30;99.90;;;;;;2079635;28;20645;-71
2022/01/03 00:45:23;;;;;;;6.88;2.33;;;12.40;99.90;;;;;;2080474;28;20031;-71
2022/01/03 00:46:26;;;;;;;14.70;3.47;;;12.30;99.90;;;;;;2074255;28;20030;-71
2022/01/03 00:47:31;;;;;;;10.93;3.35;;;12.40;99.90;;;;;;2081470;28;20024;-72
2022/01/03 00:48:32;;;;;;;9.65;2.90;;;12.30;99.90;;;;;;2081547;28;20028;-71
2022/01/03 00:49:40;;;;;;;16.17;3.40;;;12.30;99.90;;;;;;2080914;28;20033;-71
2022/01/03 00:50:40;;;;;;;16.13;3.97;;;12.30;99.90;;;;;;2080720;28;20036;-71
2022/01/03 00:51:41;;;;;;;9.90;2.95;;;12.30;99.90;;;;;;2082725;28;20507;-71
2022/01/03 00:52:43;;;;;;;11.32;3.00;;;12.30;99.90;;;;;;2081373;28;20017;-71
2022/01/03 00:53:44;;;;;;;9.55;3.28;;;12.30;99.90;;;;;;2077307;28;20108;-71
2022/01/03 00:54:44;;;;;;;9.48;3.15;;;12.30;99.90;;;;;;2075986;28;20026;-71
2022/01/03 00:56:17;;;;;;;12.52;3.10;;;12.30;99.90;;;;;;2081429;28;20406;-71
2022/01/03 00:57:41;;;;;;;11.70;3.38;;;12.30;99.90;;;;;;2073489;28;20033;-71
2022/01/03 00:59:04;;;;;;;9.30;3.17;;;12.20;99.90;;;;;;2073519;28;20180;-71
2022/01/03 01:00:09;;;;;;;13.43;3.58;;;12.20;99.90;;;;;;2080135;28;20117;-71
2022/01/03 01:01:11;;;;;;;11.60;3.00;;;12.20;99.90;;;;;;2081407;28;20508;-71
2022/01/03 01:02:13;;;;;;;13.90;3.40;;;12.20;99.90;;;;;;2080432;28;20113;-71
2022/01/03 01:03:20;;;;;;;11.65;3.13;;;12.20;99.90;;;;;;2076090;28;20465;-71
2022/01/03 01:04:22;;;;;;;14.65;3.50;;;12.30;99.90;;;;;;2082059;28;20409;-71
2022/01/03 01:05:23;;;;;;;11.00;3.28;;;12.20;99.90;;;;;;2088037;28;20365;-71
2022/01/03 01:06:25;;;;;;;8.38;2.95;;;12.20;99.90;;;;;;2086179;28;20078;-71
2022/01/03 01:07:30;;;;;;;11.43;4.00;;;12.20;99.90;;;;;;2082691;28;20108;-71
2022/01/03 01:08:33;;;;;;;13.48;3.83;;;12.30;99.90;;;;;;2082980;28;20017;-71
2022/01/03 01:09:34;;;;;;;13.60;3.80;;;12.20;99.90;;;;;;2082789;28;20447;-71
2022/01/03 01:10:39;;;;;;;10.30;3.38;;;12.20;99.90;;;;;;2082807;28;20108;-71
2022/01/03 01:11:44;;;;;;;10.07;3.35;;;12.20;99.90;;;;;;2082545;28;20124;-71
2022/01/03 01:12:46;;;;;;;11.50;2.63;;;12.20;99.90;;;;;;2087199;28;20017;-71
2022/01/03 01:13:47;;;;;;;14.45;4.00;;;12.20;99.90;;;;;;2085193;28;20469;-71
2022/01/03 01:14:50;;;;;;;13.43;3.95;;;12.20;99.90;;;;;;2084936;28;20362;-71
2022/01/03 01:15:51;;;;;;;15.85;3.95;;;12.20;99.90;;;;;;2086365;28;20115;-71
2022/01/03 01:16:53;;;;;;;13.60;3.60;;;12.20;99.90;;;;;;2091142;28;20025;-71
2022/01/03 01:17:55;;;;;;;12.77;3.63;;;12.20;99.90;;;;;;2090929;28;20028;-71
2022/01/03 01:18:56;;;;;;;12.45;3.80;;;12.20;99.90;;;;;;2088891;28;20412;-71
2022/01/03 01:19:59;;;;;;;14.18;3.63;;;12.20;99.90;;;;;;2082746;28;20112;-71
2022/01/03 01:21:00;;;;;;;11.18;3.95;;;12.20;99.90;;;;;;2087908;28;20029;-71
2022/01/03 01:22:01;;;;;;;20.67;4.72;;;12.20;99.90;;;;;;2082729;28;20029;-71
2022/01/03 01:23:06;;;;;;;14.52;4.50;;;12.20;99.90;;;;;;2082159;28;20181;-71
2022/01/03 01:24:06;;;;;;;26.92;4.85;;;12.30;99.90;;;;;;2082111;28;20025;-71
2022/01/03 01:27:49;;;;;;;15.02;4.45;;;12.20;99.90;;;;;;2080850;28;20026;-71
2022/01/03 01:28:50;;;;;;;18.58;4.60;;;12.20;99.90;;;;;;2082704;28;20473;-71
2022/01/03 01:29:51;;;;;;;15.80;4.32;;;12.20;99.90;;;;;;2082669;28;20457;-71
2022/01/03 01:30:56;;;;;;;13.35;3.95;;;12.20;99.90;;;;;;2082544;28;20140;-72
2022/01/03 01:32:01;;;;;;;18.08;4.45;;;12.20;99.90;;;;;;2082440;28;20033;-71
2022/01/03 01:33:07;;;;;;;17.85;4.20;;;12.20;99.90;;;;;;2082786;28;20485;-71
2022/01/03 01:34:13;;;;;;;16.15;4.68;;;12.20;99.90;;;;;;2082447;28;20029;-71
2022/01/03 01:35:14;;;;;;;16.77;4.35;;;12.20;99.90;;;;;;2085377;28;20682;-71
2022/01/03 01:36:14;;;;;;;14.85;4.20;;;12.20;99.90;;;;;;2085031;28;20037;-71
2022/01/03 01:37:19;;;;;;;18.15;4.38;;;12.20;99.90;;;;;;2087945;28;20477;-71
2022/01/03 01:38:30;;;;;;;21.10;4.90;;;12.20;99.90;;;;;;2087247;28;20033;-71
2022/01/03 01:39:31;;;;;;;15.75;4.20;;;12.20;99.90;;;;;;2080413;28;20018;-71
2022/01/03 01:40:31;;;;;;;15.65;3.72;;;12.20;99.90;;;;;;2085085;28;20130;-71
2022/01/03 01:41:37;;;;;;;15.75;4.50;;;12.20;99.90;;;;;;2080578;28;20030;-71
2022/01/03 01:42:45;;;;;;;15.85;4.82;;;12.20;99.90;;;;;;2090714;28;20075;-71
2022/01/03 01:43:47;;;;;;;15.80;4.18;;;12.10;99.90;;;;;;2089565;28;20469;-71
2022/01/03 01:44:50;;;;;;;16.50;4.82;;;12.10;99.90;;;;;;2089667;28;20044;-71
2022/01/03 01:45:52;;;;;;;16.95;4.35;;;12.10;99.90;;;;;;2082734;28;20056;-71
2022/01/03 01:46:54;;;;;;;24.88;5.60;;;12.10;99.90;;;;;;2081762;28;20100;-71
2022/01/03 01:47:59;;;;;;;24.85;5.05;;;12.10;99.90;;;;;;2082093;28;20072;-71
2022/01/03 01:49:04;;;;;;;17.75;4.53;;;12.10;99.90;;;;;;2090732;28;20020;-71
2022/01/03 01:50:07;;;;;;;20.80;5.03;;;12.10;99.90;;;;;;2083709;28;20043;-71
2022/01/03 01:51:09;;;;;;;23.08;4.65;;;12.10;99.90;;;;;;2082434;28;20079;-71
2022/01/03 01:52:22;;;;;;;21.08;5.10;;;12.10;99.90;;;;;;2074461;28;20026;-71
2022/01/03 01:53:25;;;;;;;15.60;4.43;;;12.10;99.90;;;;;;2078252;28;20022;-71
2022/01/03 01:54:33;;;;;;;20.83;5.07;;;12.10;99.90;;;;;;2081933;28;20065;-71
2022/01/03 01:55:39;;;;;;;21.65;4.97;;;12.10;99.90;;;;;;2081754;28;20025;-71
2022/01/03 01:57:07;;;;;;;17.30;4.43;;;12.10;99.90;;;;;;2086668;28;20469;-71
2022/01/03 01:58:28;;;;;;;20.00;5.15;;;12.10;99.90;;;;;;2086849;28;20104;-71
2022/01/03 01:59:43;;;;;;;21.02;4.50;;;12.00;99.90;;;;;;2083643;28;20033;-72
2022/01/03 02:00:48;;;;;;;15.73;4.35;;;12.00;99.90;;;;;;2090585;28;20025;-71
2022/01/03 02:02:03;;;;;;;17.92;4.60;;;12.10;99.90;;;;;;2088061;28;20531;-71
2022/01/03 02:03:37;;;;;;;23.27;5.43;;;12.10;99.90;;;;;;2082242;28;20392;-71
2022/01/03 02:04:46;;;;;;;16.80;4.53;;;12.00;99.90;;;;;;2085197;28;20021;-71
2022/01/03 02:06:25;;;;;;;17.10;4.72;;;12.00;99.90;;;;;;2088950;28;20025;-71
2022/01/03 02:07:51;;;;;;;21.00;4.40;;;12.00;99.90;;;;;;2076402;28;20497;-71
2022/01/03 02:09:07;;;;;;;21.83;4.57;;;12.00;99.90;;;;;;2073972;28;20030;-71
2022/01/03 02:10:13;;;;;;;19.42;4.50;;;12.00;99.90;;;;;;2077645;28;20382;-71
2022/01/03 02:11:32;;;;;;;20.58;4.70;;;12.00;99.90;;;;;;2094480;28;20058;-71
2022/01/03 02:12:40;;;;;;;14.40;4.40;;;12.00;99.90;;;;;;2089816;28;20029;-71
2022/01/03 02:13:43;;;;;;;18.45;4.32;;;12.00;99.90;;;;;;2074059;28;20113;-71
2022/01/03 02:14:44;;;;;;;21.08;4.55;;;12.00;99.90;;;;;;2080705;28;20110;-71
2022/01/03 02:15:49;;;;;;;17.55;4.55;;;12.00;99.90;;;;;;2082386;28;20075;-71
2022/01/03 02:16:50;;;;;;;25.00;5.15;;;12.00;99.90;;;;;;2082286;28;20020;-71
2022/01/03 02:17:51;;;;;;;12.77;4.18;;;12.00;99.90;;;;;;2082246;28;20037;-71
2022/01/03 02:18:51;;;;;;;17.05;4.53;;;12.00;99.90;;;;;;2082955;28;20029;-71
2022/01/03 02:20:23;;;;;;;15.20;4.65;;;12.00;99.90;;;;;;2090541;28;20017;-71
2022/01/03 02:21:23;;;;;;;16.05;4.22;;;12.00;99.90;;;;;;2089799;28;20043;-71
2022/01/03 02:22:24;;;;;;;18.77;4.55;;;12.00;99.90;;;;;;2090582;28;20488;-71
2022/01/03 02:23:24;;;;;;;22.48;4.82;;;12.00;99.90;;;;;;2090494;28;20032;-71
2022/01/03 02:24:25;;;;;;;17.60;4.72;;;12.00;99.90;;;;;;2084746;28;20045;-71
2022/01/03 02:25:26;;;;;;;20.88;5.10;;;12.00;99.90;;;;;;2083289;28;20386;-71
2022/01/03 02:26:30;;;;;;;20.15;4.95;;;12.00;99.90;;;;;;2084447;28;20022;-71
2022/01/03 02:27:32;;;;;;;17.13;4.68;;;12.10;99.90;;;;;;2087474;28;20114;-71
2022/01/03 02:28:32;;;;;;;22.42;5.00;;;12.00;99.90;;;;;;2090221;28;20070;-71
2022/01/03 02:29:33;;;;;;;23.20;4.97;;;12.10;99.90;;;;;;2090338;28;20075;-71
2022/01/03 02:30:35;;;;;;;14.90;4.72;;;12.10;99.90;;;;;;2098000;28;20029;-71
2022/01/03 02:31:36;;;;;;;23.25;4.57;;;12.10;99.90;;;;;;2092942;28;20444;-71
2022/01/03 02:32:38;;;;;;;19.92;4.43;;;12.10;99.90;;;;;;2082167;28;20021;-71
2022/01/03 02:33:39;;;;;;;17.85;4.60;;;12.10;99.90;;;;;;2082005;28;20025;-71
2022/01/03 02:34:41;;;;;;;23.83;5.43;;;12.10;99.90;;;;;;2082183;28;20453;-71
2022/01/03 02:35:43;;;;;;;19.58;4.28;;;12.10;99.90;;;;;;2082085;28;20057;-71
2022/01/03 02:36:44;;;;;;;21.77;4.47;;;12.10;99.90;;;;;;2082120;28;20028;-71
2022/01/03 02:37:47;;;;;;;18.55;5.25;;;12.10;99.90;;;;;;2081884;28;20377;-71
2022/01/03 02:38:47;;;;;;;18.58;4.70;;;12.10;99.90;;;;;;2083919;28;20021;-71
2022/01/03 02:39:49;;;;;;;21.65;4.70;;;12.10;99.90;;;;;;2073286;28;20049;-71
2022/01/03 02:40:49;;;;;;;19.00;4.82;;;12.10;99.90;;;;;;2089420;28;20025;-71
2022/01/03 02:41:50;;;;;;;20.25;4.55;;;12.10;99.90;;;;;;2081997;28;20071;-71
2022/01/03 02:42:51;;;;;;;18.40;3.70;;;12.10;99.90;;;;;;2081981;28;20026;-71
2022/01/03 02:43:52;;;;;;;20.33;4.60;;;12.10;99.90;;;;;;2081964;28;20064;-71
2022/01/03 02:44:59;;;;;;;19.27;4.95;;;12.10;99.90;;;;;;2084028;28;20026;-71
2022/01/03 02:46:00;;;;;;;19.92;5.05;;;12.10;99.90;;;;;;2090238;28;20125;-71
2022/01/03 02:47:01;;;;;;;18.13;4.60;;;12.10;99.90;;;;;;2087597;28;20032;-71
2022/01/03 02:48:07;;;;;;;20.88;5.00;;;12.10;99.90;;;;;;2075280;28;20469;-71
2022/01/03 02:49:07;;;;;;;21.30;4.18;;;12.10;99.90;;;;;;2082334;28;20017;-71
2022/01/03 02:50:09;;;;;;;21.08;4.65;;;12.00;99.90;;;;;;2081970;28;20029;-71
2022/01/03 02:51:11;;;;;;;15.75;4.57;;;12.10;99.90;;;;;;2082989;28;20029;-71
2022/01/03 02:52:11;;;;;;;22.05;4.80;;;12.00;99.90;;;;;;2086888;28;20029;-71
2022/01/03 02:53:13;;;;;;;17.33;5.05;;;12.10;99.90;;;;;;2086440;28;20453;-71
2022/01/03 02:54:14;;;;;;;17.63;4.68;;;12.10;99.90;;;;;;2090211;28;20040;-71
2022/01/03 02:55:16;;;;;;;13.95;4.35;;;12.10;99.90;;;;;;2089307;28;20074;-71
2022/01/03 02:56:17;;;;;;;19.00;4.25;;;12.10;99.90;;;;;;2091709;28;20033;-71
2022/01/03 02:57:23;;;;;;;17.65;3.72;;;12.00;99.90;;;;;;2097985;28;20473;-71
2022/01/03 02:58:24;;;;;;;19.08;4.32;;;12.00;99.90;;;;;;2085587;28;20021;-71
2022/01/03 02:59:25;;;;;;;19.73;4.65;;;12.00;99.90;;;;;;2082019;28;20104;-71
2022/01/03 03:00:29;;;;;;;21.05;4.40;;;12.00;99.90;;;;;;2081982;28;20046;-71
2022/01/03 03:01:29;;;;;;;14.18;4.57;;;12.00;99.90;;;;;;2081919;28;20104;-70
2022/01/03 03:02:30;;;;;;;14.52;3.97;;;12.00;99.90;;;;;;2078189;28;20458;-71
2022/01/03 03:03:30;;;;;;;16.88;4.25;;;12.00;99.90;;;;;;2082107;28;20095;-71
2022/01/03 03:04:31;;;;;;;20.45;4.75;;;12.00;99.90;;;;;;2085006;28;20044;-71
2022/01/03 03:05:32;;;;;;;24.63;5.68;;;12.00;99.90;;;;;;2090143;28;20073;-71
2022/01/03 03:06:33;;;;;;;17.65;4.25;;;12.00;99.90;;;;;;2090121;28;20021;-71
2022/01/03 03:07:34;;;;;;;16.88;4.25;;;12.10;99.90;;;;;;2089824;28;20051;-71
2022/01/03 03:08:36;;;;;;;22.48;4.80;;;12.00;99.90;;;;;;2089640;28;20026;-71
2022/01/03 03:09:37;;;;;;;18.40;4.00;;;12.00;99.90;;;;;;2086342;28;20025;-71
2022/01/03 03:10:38;;;;;;;17.98;4.65;;;12.00;99.90;;;;;;2089639;28;20052;-71
2022/01/03 03:11:38;;;;;;;21.00;4.60;;;12.00;99.90;;;;;;2088108;28;20033;-71
2022/01/03 03:12:40;;;;;;;20.08;4.18;;;12.00;99.90;;;;;;2081896;28;20105;-71
2022/01/03 03:13:40;;;;;;;22.50;4.65;;;12.00;99.90;;;;;;2081501;28;20123;-71
2022/01/03 03:14:41;;;;;;;16.77;3.95;;;12.00;99.90;;;;;;2081029;28;20112;-71
2022/01/03 03:15:42;;;;;;;18.73;4.55;;;12.00;99.90;;;;;;2080905;28;20026;-71
2022/01/03 03:16:42;;;;;;;17.85;4.65;;;12.00;99.90;;;;;;2081974;28;20117;-71
2022/01/03 03:17:44;;;;;;;21.42;4.18;;;12.00;99.90;;;;;;2081692;28;20018;-71
2022/01/03 03:18:44;;;;;;;19.40;4.53;;;12.00;99.90;;;;;;2081714;28;20028;-71
2022/01/03 03:20:05;;;;;;;17.60;4.28;;;12.00;99.90;;;;;;2081714;28;20018;-71
2022/01/03 03:21:06;;;;;;;22.02;4.63;;;12.00;99.90;;;;;;2081750;28;20033;-71
2022/01/03 03:22:06;;;;;;;18.63;4.18;;;11.90;99.90;;;;;;2081718;28;20022;-71
2022/01/03 03:23:07;;;;;;;15.60;4.15;;;12.00;99.90;;;;;;2081988;28;20022;-71
2022/01/03 03:24:07;;;;;;;19.83;4.63;;;12.00;99.90;;;;;;2081753;28;20079;-71
2022/01/03 03:25:14;;;;;;;19.48;4.30;;;11.90;99.90;;;;;;2081537;28;20366;-71
2022/01/03 03:26:15;;;;;;;18.98;4.10;;;11.90;99.90;;;;;;2081875;28;20021;-71
2022/01/03 03:27:16;;;;;;;16.17;4.43;;;11.90;99.90;;;;;;2084429;28;20028;-71
2022/01/03 03:28:16;;;;;;;18.02;4.53;;;11.90;99.90;;;;;;2089248;28;20465;-71
2022/01/03 03:29:17;;;;;;;16.02;4.13;;;11.90;99.90;;;;;;2086758;28;20363;-71
2022/01/03 03:30:24;;;;;;;18.23;3.90;;;11.90;99.90;;;;;;2081628;28;20116;-71
2022/01/03 03:31:25;;;;;;;14.20;4.25;;;11.90;99.90;;;;;;2081598;28;20021;-71
2022/01/03 03:32:27;;;;;;;14.48;3.42;;;11.90;99.90;;;;;;2081608;28;20013;-71
2022/01/03 03:33:32;;;;;;;20.00;5.30;;;11.90;99.90;;;;;;2081810;28;20041;-71
2022/01/03 03:34:33;;;;;;;18.17;4.60;;;11.80;99.90;;;;;;2081531;28;20041;-71
2022/01/03 03:35:34;;;;;;;19.92;4.68;;;11.80;99.90;;;;;;2081797;28;20104;-71
2022/01/03 03:36:34;;;;;;;18.88;4.22;;;11.80;99.90;;;;;;2080965;28;20021;-70
2022/01/03 03:37:35;;;;;;;15.00;4.25;;;11.80;99.90;;;;;;2080552;28;20021;-71
2022/01/03 03:38:36;;;;;;;18.50;3.97;;;11.80;99.90;;;;;;2083849;28;20031;-71
2022/01/03 03:39:38;;;;;;;17.38;4.65;;;11.80;99.90;;;;;;2077829;28;20029;-71
2022/01/03 03:40:40;;;;;;;20.60;4.55;;;11.80;99.90;;;;;;2084498;28;20025;-71
2022/01/03 03:41:41;;;;;;;19.45;4.53;;;11.80;99.90;;;;;;2082815;28;20018;-71
2022/01/03 03:42:42;;;;;;;21.27;4.68;;;11.80;99.90;;;;;;2080880;28;20025;-71
2022/01/03 03:43:43;;;;;;;16.40;4.28;;;11.80;99.90;;;;;;2083272;28;20021;-71
2022/01/03 03:44:45;;;;;;;24.55;4.78;;;11.80;99.90;;;;;;2074310;28;20010;-71
2022/01/03 03:45:46;;;;;;;16.08;4.22;;;11.80;99.90;;;;;;2081663;28;20025;-71
2022/01/03 03:46:46;;;;;;;18.88;3.85;;;11.80;99.90;;;;;;2085647;28;20686;-71
2022/01/03 03:47:47;;;;;;;18.92;4.40;;;11.80;99.90;;;;;;2074544;28;20021;-71
2022/01/03 03:48:47;;;;;;;16.10;3.92;;;11.80;99.90;;;;;;2081069;28;20017;-71
2022/01/03 03:49:48;;;;;;;24.30;5.07;;;11.80;99.90;;;;;;2081673;28;20017;-72
2022/01/03 03:50:49;;;;;;;20.25;4.85;;;11.80;99.90;;;;;;2081670;28;20024;-71
2022/01/03 03:51:49;;;;;;;17.42;4.47;;;11.80;99.90;;;;;;2087663;28;20025;-71
2022/01/03 03:52:50;;;;;;;16.33;4.70;;;11.80;99.90;;;;;;2083425;28;20032;-71
2022/01/03 03:53:50;;;;;;;18.08;4.95;;;11.80;99.90;;;;;;2080766;28;20057;-71
2022/01/03 03:54:51;;;;;;;17.88;4.65;;;11.80;99.90;;;;;;2082414;28;20489;-71
2022/01/03 03:55:52;;;;;;;11.73;3.72;;;11.80;99.90;;;;;;2083921;28;20073;-71
2022/01/03 03:56:52;;;;;;;18.58;4.35;;;11.80;99.90;;;;;;2089057;28;20033;-71
2022/01/03 03:57:53;;;;;;;16.90;4.28;;;11.80;99.90;;;;;;2087996;28;20029;-70
2022/01/03 03:58:53;;;;;;;22.73;4.40;;;11.80;99.90;;;;;;2081507;28;20150;-70
2022/01/03 03:59:54;;;;;;;14.85;4.20;;;11.80;99.90;;;;;;2086848;28;20025;-71
2022/01/03 04:00:54;;;;;;;14.02;3.78;;;11.80;99.90;;;;;;2082182;28;20025;-71
2022/01/03 04:01:55;;;;;;;16.95;3.97;;;11.80;99.90;;;;;;2087113;28;20020;-71
2022/01/03 04:02:56;;;;;;;18.65;4.18;;;11.80;99.90;;;;;;2081277;28;20026;-71
2022/01/03 04:03:57;;;;;;;17.98;4.70;;;11.80;99.90;;;;;;2081649;28;20021;-71
2022/01/03 04:04:59;;;;;;;19.92;4.72;;;11.80;99.90;;;;;;2083840;28;20030;-71
2022/01/03 04:06:00;;;;;;;17.67;4.40;;;11.80;99.90;;;;;;2090857;28;20342;-71
2022/01/03 04:07:01;;;;;;;17.13;4.18;;;11.80;99.90;;;;;;2088746;28;20170;-71
2022/01/03 04:08:02;;;;;;;16.83;4.05;;;11.80;99.90;;;;;;2086749;28;20261;-71
2022/01/03 04:09:03;;;;;;;19.98;4.10;;;11.80;99.90;;;;;;2081541;28;20033;-71
2022/01/03 04:10:05;;;;;;;16.23;4.03;;;11.80;99.90;;;;;;2081645;28;20033;-71
2022/01/03 04:11:06;;;;;;;19.52;4.45;;;11.90;99.90;;;;;;2080142;28;20519;-71
2022/01/03 04:12:07;;;;;;;16.35;3.75;;;11.90;99.90;;;;;;2080486;28;20457;-71
2022/01/03 04:13:08;;;;;;;18.23;4.30;;;11.90;99.90;;;;;;2088513;28;20025;-71
2022/01/03 04:14:09;;;;;;;17.83;4.85;;;11.90;99.90;;;;;;2089779;28;20029;-71
2022/01/03 04:15:10;;;;;;;22.15;5.13;;;11.90;99.90;;;;;;2089810;28;20076;-71
2022/01/03 04:16:12;;;;;;;20.58;4.63;;;11.90;99.90;;;;;;2083633;28;20053;-71
2022/01/03 04:17:12;;;;;;;19.02;4.47;;;11.90;99.90;;;;;;2083289;28;20484;-71
2022/01/03 04:18:13;;;;;;;21.00;4.45;;;11.90;99.90;;;;;;2090291;28;20091;-71
2022/01/03 04:19:14;;;;;;;20.30;5.00;;;11.90;99.90;;;;;;2087457;28;20109;-71
2022/01/03 04:20:16;;;;;;;22.17;4.63;;;11.90;99.90;;;;;;2086894;28;20477;-71
2022/01/03 04:21:16;;;;;;;21.13;4.15;;;11.90;99.90;;;;;;2090460;28;20070;-71
2022/01/03 04:22:17;;;;;;;15.63;4.68;;;11.80;99.90;;;;;;2091311;28;20029;-71
2022/01/03 04:23:17;;;;;;;17.02;4.28;;;11.90;99.90;;;;;;2091577;28;20029;-71
2022/01/03 04:24:18;;;;;;;18.63;3.70;;;11.90;99.90;;;;;;2091491;28;20035;-71
2022/01/03 04:25:18;;;;;;;14.60;4.32;;;11.80;99.90;;;;;;2087592;28;20484;-71
2022/01/03 04:26:19;;;;;;;16.88;4.43;;;11.80;99.90;;;;;;2083078;28;20025;-71
2022/01/03 04:27:20;;;;;;;19.27;5.22;;;11.80;99.90;;;;;;2083282;28;20074;-71
2022/01/03 04:28:21;;;;;;;18.30;4.80;;;11.80;99.90;;;;;;2083056;28;20445;-71
2022/01/03 04:29:21;;;;;;;20.85;5.10;;;11.80;99.90;;;;;;2083163;28;20262;-71
2022/01/03 04:30:22;;;;;;;15.85;3.70;;;11.80;99.90;;;;;;2084313;28;20026;-71
2022/01/03 04:31:22;;;;;;;18.35;4.15;;;11.80;99.90;;;;;;2090766;28;20105;-71
2022/01/03 04:32:23;;;;;;;13.80;4.18;;;11.80;99.90;;;;;;2090520;28;20032;-71
2022/01/03 04:33:24;;;;;;;17.02;4.80;;;11.80;99.90;;;;;;2090792;28;20018;-71
2022/01/03 04:34:24;;;;;;;19.67;4.57;;;11.80;99.90;;;;;;2079895;28;20033;-71
2022/01/03 04:35:25;;;;;;;17.77;4.72;;;11.80;99.90;;;;;;2086256;28;20091;-71
2022/01/03 04:36:26;;;;;;;22.60;4.10;;;11.80;99.90;;;;;;2091333;28;20025;-71
2022/01/03 04:37:27;;;;;;;23.05;4.18;;;11.80;99.90;;;;;;2091495;28;20028;-71
2022/01/03 04:38:28;;;;;;;16.13;4.18;;;11.80;99.90;;;;;;2090789;28;20130;-71
2022/01/03 04:39:28;;;;;;;14.48;3.63;;;11.80;99.90;;;;;;2083141;28;20112;-71
2022/01/03 04:40:29;;;;;;;20.27;4.63;;;11.80;99.90;;;;;;2082993;28;20472;-72
2022/01/03 04:41:30;;;;;;;15.63;4.38;;;11.80;99.90;;;;;;2083192;28;20036;-71
2022/01/03 04:42:30;;;;;;;15.95;4.50;;;11.80;99.90;;;;;;2082921;28;20031;-71
2022/01/03 04:43:33;;;;;;;15.35;4.22;;;11.80;99.90;;;;;;2083070;28;20032;-71
2022/01/03 04:44:34;;;;;;;21.48;4.63;;;11.80;99.90;;;;;;2082774;28;20028;-71
2022/01/03 04:45:34;;;;;;;16.17;4.45;;;11.80;99.90;;;;;;2077670;28;20029;-71
2022/01/03 04:46:36;;;;;;;16.27;4.30;;;11.80;99.90;;;;;;2080672;28;20350;-71
2022/01/03 04:47:37;;;;;;;15.73;4.43;;;11.80;99.90;;;;;;2078398;28;20018;-71
2022/01/03 04:48:39;;;;;;;19.70;4.07;;;11.80;99.90;;;;;;2088112;28;20079;-70
2022/01/03 04:49:39;;;;;;;16.70;3.70;;;11.90;99.90;;;;;;2091078;28;20021;-71
2022/01/03 04:50:40;;;;;;;18.55;4.85;;;11.80;99.90;;;;;;2091369;28;20102;-71
2022/01/03 04:51:41;;;;;;;17.48;4.40;;;11.80;99.90;;;;;;2088842;28;20025;-71
2022/01/03 04:52:41;;;;;;;19.65;4.30;;;11.80;99.90;;;;;;2085383;28;20029;-71
2022/01/03 04:53:42;;;;;;;15.73;4.60;;;11.80;99.90;;;;;;2082850;28;20056;-71
2022/01/03 04:54:42;;;;;;;15.13;4.45;;;11.80;99.90;;;;;;2082800;28;20092;-71
2022/01/03 04:55:44;;;;;;;21.05;4.70;;;11.80;99.90;;;;;;2082568;28;20020;-71
2022/01/03 04:56:44;;;;;;;15.07;4.35;;;11.80;99.90;;;;;;2088785;28;20013;-71
2022/01/03 04:57:45;;;;;;;17.02;3.90;;;11.80;99.90;;;;;;2091138;28;20027;-70
2022/01/03 04:58:45;;;;;;;21.10;4.65;;;11.80;99.90;;;;;;2091249;28;20441;-71
2022/01/03 04:59:46;;;;;;;20.70;4.22;;;11.80;99.90;;;;;;2091019;28;20029;-71
2022/01/03 05:00:48;;;;;;;21.45;4.75;;;11.80;99.90;;;;;;2091277;28;20016;-71
2022/01/03 05:01:49;;;;;;;19.67;4.45;;;11.80;99.90;;;;;;2089224;28;20461;-71
2022/01/03 05:02:49;;;;;;;16.08;3.67;;;11.80;99.90;;;;;;2084962;28;20491;-71
2022/01/03 05:03:51;;;;;;;18.73;3.88;;;11.80;99.90;;;;;;2084891;28;20024;-71
2022/01/03 05:04:52;;;;;;;14.77;4.18;;;11.80;99.90;;;;;;2081810;28;20119;-71
2022/01/03 05:05:52;;;;;;;19.20;4.05;;;11.80;99.90;;;;;;2083038;28;20041;-70
2022/01/03 05:06:53;;;;;;;19.85;4.18;;;11.80;99.90;;;;;;2090933;28;20025;-70
2022/01/03 05:07:54;;;;;;;17.10;3.65;;;11.80;99.90;;;;;;2091057;28;20485;-71
2022/01/03 05:08:54;;;;;;;18.48;4.20;;;11.80;99.90;;;;;;2091095;28;20020;-71
2022/01/03 05:09:55;;;;;;;16.08;3.75;;;11.80;99.90;;;;;;2091024;28;20059;-71
2022/01/03 05:10:56;;;;;;;21.45;4.18;;;11.80;99.90;;;;;;2091162;28;20019;-71
2022/01/03 05:11:57;;;;;;;14.90;3.97;;;11.80;99.90;;;;;;2091149;28;20071;-71
2022/01/03 05:12:57;;;;;;;22.45;4.47;;;11.80;99.90;;;;;;2091183;28;20017;-71
2022/01/03 05:13:58;;;;;;;19.02;4.35;;;11.80;99.90;;;;;;2090938;28;20025;-71
2022/01/03 05:14:58;;;;;;;13.70;3.67;;;11.80;99.90;;;;;;2090985;28;20580;-71
2022/01/03 05:16:00;;;;;;;19.10;3.90;;;11.80;99.90;;;;;;2089389;28;20025;-71
2022/01/03 05:17:01;;;;;;;14.05;4.10;;;11.80;99.90;;;;;;2082967;28;20025;-71
2022/01/03 05:18:01;;;;;;;20.20;4.47;;;11.80;99.90;;;;;;2089076;28;20037;-71
2022/01/03 05:19:03;;;;;;;16.00;4.63;;;11.80;99.90;;;;;;2090374;28;20449;-70
2022/01/03 05:20:04;;;;;;;18.27;4.70;;;11.80;99.90;;;;;;2082485;28;20057;-71
2022/01/03 05:21:05;;;;;;;18.23;4.07;;;11.80;99.90;;;;;;2082919;28;20083;-71
2022/01/03 05:22:05;;;;;;;20.35;3.72;;;11.80;99.90;;;;;;2082650;28;20044;-71
2022/01/03 05:23:06;;;;;;;20.05;4.32;;;11.80;99.90;;;;;;2082474;28;20037;-71
2022/01/03 05:24:07;;;;;;;17.02;3.58;;;11.80;99.90;;;;;;2086227;28;20070;-71
2022/01/03 05:25:07;;;;;;;20.00;4.00;;;11.80;99.90;;;;;;2074350;28;20061;-72
2022/01/03 05:26:08;;;;;;;20.90;4.18;;;11.80;99.90;;;;;;2081783;28;20083;-70